createdAt,value
2022-09-05T00:04:24.961Z,175.47
2022-09-05T00:09:40.077Z,178.10
2022-09-05T00:15:18.450Z,179.05
2022-09-05T00:24:32.906Z,179.82
2022-09-05T00:26:14.792Z,179.63
2022-09-05T00:31:55.941Z,179.82
2022-09-05T00:37:18.255Z,183.58
2022-09-05T00:42:49.491Z,185.21
2022-09-05T00:48:20.857Z,188.29
2022-09-05T00:53:52.492Z,192.60
2022-09-05T00:59:23.852Z,193.73
2022-09-05T01:04:55.707Z,193.73
2022-09-05T01:10:27.313Z,189.70
2022-09-05T01:15:58.725Z,184.39
2022-09-05T01:21:30.042Z,185.21
2022-09-05T01:27:01.670Z,189.48
2022-09-05T01:32:33.175Z,192.15
2022-09-05T01:38:04.740Z,193.28
2022-09-05T01:43:36.082Z,190.36
2022-09-05T01:49:07.825Z,193.96
2022-09-05T01:54:39.539Z,192.93
2022-09-05T02:00:10.837Z,198.18
2022-09-05T02:11:13.726Z,201.46
2022-09-05T02:16:45.303Z,203.59
2022-09-05T02:22:16.933Z,200.60
2022-09-05T02:28:04.246Z,204.48
2022-09-05T02:42:22.554Z,189.92
2022-09-05T02:45:11.754Z,185.83
2022-09-05T02:57:33.580Z,173.65
2022-09-05T03:00:58.844Z,170.80
2022-09-05T03:06:34.655Z,166.38
2022-09-05T03:12:27.120Z,169.93
2022-09-05T03:23:05.492Z,178.67
2022-09-05T03:28:37.060Z,178.67
2022-09-05T03:34:08.340Z,179.05
2022-09-05T03:39:39.968Z,181.19
2022-09-05T03:57:05.817Z,174.19
2022-09-05T03:57:23.407Z,177.34
2022-09-05T04:05:51.620Z,181.19
2022-09-05T04:08:24.666Z,182.58
2022-09-05T04:12:49.358Z,177.34
2022-09-05T04:23:53.075Z,174.19
2022-09-05T04:29:24.781Z,177.90
2022-09-05T04:34:56.256Z,178.67
2022-09-05T04:40:32.243Z,183.99
2022-09-05T04:45:59.687Z,193.39
2022-09-05T04:51:31.879Z,197.35
2022-09-05T04:57:14.076Z,203.09
2022-09-05T05:06:19.104Z,206.02
2022-09-05T05:08:07.055Z,202.21
2022-09-05T05:18:02.533Z,200.11
2022-09-05T05:30:14.195Z,196.63
2022-09-05T05:35:48.541Z,193.85
2022-09-05T05:41:19.899Z,190.14
2022-09-05T05:46:51.425Z,186.24
2022-09-05T05:52:25.470Z,178.48
2022-09-05T05:57:57.241Z,168.05
2022-09-05T06:03:29.682Z,163.76
2022-09-05T06:13:06.292Z,157.13
2022-09-05T06:21:58.273Z,148.20
2022-09-05T06:25:36.572Z,144.23
2022-09-05T06:31:29.286Z,140.94
2022-09-05T06:36:40.176Z,138.49
2022-09-05T06:47:43.663Z,134.79
2022-09-05T06:58:44.783Z,129.76
2022-09-05T07:05:05.224Z,131.19
2022-09-05T07:09:48.379Z,129.76
2022-09-05T07:15:20.612Z,129.56
2022-09-05T07:21:16.553Z,131.09
2022-09-05T07:26:51.383Z,130.57
2022-09-05T07:31:55.432Z,130.27
2022-09-05T07:37:27.297Z,128.46
2022-09-05T07:43:09.123Z,126.90
2022-09-05T07:48:34.813Z,124.25
2022-09-05T07:57:08.679Z,120.40
2022-09-05T07:59:33.952Z,119.28
2022-09-05T08:05:06.206Z,116.70
2022-09-05T08:07:47.772Z,119.62
2022-09-05T08:13:24.577Z,119.54
2022-09-05T08:18:21.377Z,117.43
2022-09-05T08:23:52.915Z,116.13
2022-09-05T08:29:24.578Z,113.91
2022-09-05T08:34:55.843Z,112.15
2022-09-05T08:40:27.424Z,110.51
2022-09-05T08:46:40.699Z,109.86
2022-09-05T08:51:31.388Z,109.36
2022-09-05T08:57:03.179Z,108.93
2022-09-05T09:02:46.936Z,107.11
2022-09-05T09:08:06.715Z,106.90
2022-09-05T09:13:38.330Z,105.89
2022-09-05T09:19:09.628Z,105.82
2022-09-05T09:24:41.726Z,106.43
2022-09-05T09:30:13.415Z,107.80
2022-09-05T09:41:16.855Z,109.36
2022-09-05T09:46:48.707Z,110.15
2022-09-05T09:52:20.834Z,110.22
2022-09-05T09:57:51.843Z,111.10
2022-09-05T10:07:36.789Z,110.73
2022-09-05T10:10:48.843Z,111.40
2022-09-05T10:14:49.065Z,111.92
2022-09-05T10:20:09.095Z,112.37
2022-09-05T10:32:56.025Z,111.77
2022-09-05T10:36:40.146Z,113.29
2022-09-05T10:42:12.055Z,113.29
2022-09-05T10:47:43.994Z,113.06
2022-09-05T10:53:15.725Z,114.22
2022-09-05T11:00:58.064Z,114.22
2022-09-05T11:04:18.882Z,114.61
2022-09-05T11:09:56.058Z,114.93
2022-09-05T11:15:24.217Z,113.99
2022-09-05T11:20:55.825Z,114.85
2022-09-05T11:34:07.372Z,113.91
2022-09-05T11:39:52.514Z,113.60
2022-09-05T11:43:00.839Z,114.30
2022-09-05T11:48:32.991Z,114.30
2022-09-05T11:54:05.012Z,114.77
2022-09-05T11:59:36.925Z,114.69
2022-09-05T12:05:48.447Z,113.75
2022-09-05T12:10:47.031Z,113.21
2022-09-05T12:16:12.027Z,112.45
2022-09-05T12:21:43.675Z,113.52
2022-09-05T12:27:42.935Z,113.21
2022-09-05T12:36:01.502Z,113.91
2022-09-05T12:40:56.188Z,114.38
2022-09-05T12:44:38.063Z,115.01
2022-09-05T12:49:23.297Z,115.09
2022-09-05T12:54:57.078Z,113.99
2022-09-05T13:03:04.284Z,112.22
2022-09-05T13:05:58.789Z,112.30
2022-09-05T13:15:02.696Z,113.06
2022-09-05T13:17:02.236Z,113.37
2022-09-05T13:22:34.061Z,112.60
2022-09-05T13:44:34.618Z,114.77
2022-09-05T13:55:36.112Z,113.29
2022-09-05T14:11:18.131Z,119.28
2022-09-05T14:16:53.651Z,120.92
2022-09-05T14:27:51.239Z,120.31
2022-09-05T14:37:36.030Z,119.97
2022-09-05T14:38:54.901Z,118.18
2022-09-05T14:44:27.660Z,117.52
2022-09-05T14:49:59.700Z,117.68
2022-09-05T14:55:31.440Z,117.19
2022-09-05T15:02:44.407Z,117.60
2022-09-05T15:06:35.078Z,117.52
2022-09-05T15:12:22.172Z,117.19
2022-09-05T15:17:38.627Z,117.02
2022-09-05T15:23:16.156Z,117.19
2022-09-05T15:28:42.249Z,118.10
2022-09-05T15:39:43.466Z,119.11
2022-09-05T15:45:15.227Z,119.71
2022-09-05T15:50:47.051Z,120.05
2022-09-05T15:56:18.992Z,120.75
2022-09-05T16:10:48.806Z,121.54
2022-09-05T16:23:12.789Z,123.34
2022-09-05T16:26:25.506Z,125.56
2022-09-05T16:31:51.893Z,126.61
2022-09-05T16:37:23.588Z,126.42
2022-09-05T16:42:55.511Z,125.94
2022-09-05T16:59:30.866Z,125.28
2022-09-05T17:05:05.395Z,125.19
2022-09-05T17:10:34.263Z,123.34
2022-09-05T17:16:05.944Z,125.00
2022-09-05T17:22:32.284Z,123.98
2022-09-05T17:29:50.493Z,123.06
2022-09-05T17:38:14.497Z,122.70
2022-09-05T17:43:46.532Z,124.81
2022-09-05T17:49:20.476Z,125.66
2022-09-05T17:54:50.545Z,126.32
2022-09-05T18:24:42.724Z,131.60
2022-09-05T18:30:14.327Z,132.34
2022-09-05T18:35:50.718Z,133.39
2022-09-05T18:41:19.499Z,134.36
2022-09-05T18:46:51.739Z,133.93
2022-09-05T18:52:24.143Z,135.01
2022-09-05T18:57:58.893Z,135.56
2022-09-05T19:03:28.016Z,135.67
2022-09-05T19:08:59.804Z,134.90
2022-09-05T19:14:31.659Z,134.47
2022-09-05T19:20:12.587Z,137.46
2022-09-05T19:25:35.190Z,136.67
2022-09-05T19:36:47.008Z,137.91
2022-09-05T19:37:04.777Z,137.80
2022-09-05T19:47:30.003Z,137.91
2022-09-05T19:53:13.686Z,140.11
2022-09-05T19:58:45.284Z,141.42
2022-09-05T20:04:17.252Z,141.30
2022-09-05T20:09:48.913Z,141.18
2022-09-05T20:15:20.694Z,142.02
2022-09-05T20:20:52.339Z,143.36
2022-09-05T20:26:24.243Z,143.24
2022-09-05T20:31:56.042Z,142.99
2022-09-05T20:43:08.580Z,144.98
2022-09-05T20:43:26.811Z,144.48
2022-09-05T20:59:32.081Z,147.29
2022-09-05T21:05:06.922Z,148.73
2022-09-05T21:10:33.726Z,148.33
2022-09-05T21:16:05.725Z,148.46
2022-09-05T21:21:37.382Z,149.93
2022-09-05T21:27:09.111Z,151.02
2022-09-05T21:32:41.482Z,152.54
2022-09-05T21:38:12.695Z,153.66
2022-09-05T21:47:38.963Z,154.80
2022-09-05T21:49:16.262Z,155.67
2022-09-05T21:59:17.233Z,154.66
2022-09-05T22:00:19.707Z,156.10
2022-09-05T22:05:51.512Z,156.84
2022-09-05T22:11:23.477Z,157.88
2022-09-05T22:16:55.343Z,159.69
2022-09-05T22:22:27.051Z,160.15
2022-09-05T22:27:58.924Z,161.08
2022-09-05T22:33:30.451Z,163.60
2022-09-05T22:39:02.599Z,164.90
2022-09-05T22:44:34.282Z,165.55
2022-09-05T22:50:06.172Z,165.55
2022-09-05T22:55:37.954Z,168.90
2022-09-05T23:01:09.447Z,170.80
2022-09-05T23:06:41.381Z,171.33
2022-09-05T23:12:13.346Z,171.15
2022-09-05T23:17:45.556Z,171.68
2022-09-05T23:23:17.263Z,173.65
2022-09-05T23:28:49.102Z,175.84
2022-09-05T23:34:20.775Z,174.92
2022-09-05T23:39:52.590Z,172.75
2022-09-05T23:50:54.221Z,173.83
2022-09-05T23:56:26.229Z,174.37
